sensor_id;sensor_type;location;lat;lon;timestamp;temperature;humidity
66343;DHT22;53144;51.524;5.080;2023-06-01T00:00:23;13.37;85.55
66343;DHT22;53144;51.524;5.080;2023-06-01T00:02:48;13.31;85.25
66343;DHT22;53144;51.524;5.080;2023-06-01T00:05:15;13.22;85.95
66343;DHT22;53144;51.524;5.080;2023-06-01T00:07:40;13.21;86.10
66343;DHT22;53144;51.524;5.080;2023-06-01T00:10:05;13.25;85.99
66343;DHT22;53144;51.524;5.080;2023-06-01T00:12:31;13.15;85.89
66343;DHT22;53144;51.524;5.080;2023-06-01T00:14:56;13.12;86.26
66343;DHT22;53144;51.524;5.080;2023-06-01T00:17:22;13.04;86.44
66343;DHT22;53144;51.524;5.080;2023-06-01T00:19:48;12.99;86.64
66343;DHT22;53144;51.524;5.080;2023-06-01T00:22:14;12.99;86.72
66343;DHT22;53144;51.524;5.080;2023-06-01T00:24:40;12.99;86.64
66343;DHT22;53144;51.524;5.080;2023-06-01T00:27:06;12.86;86.70
66343;DHT22;53144;51.524;5.080;2023-06-01T00:29:32;12.96;86.11
66343;DHT22;53144;51.524;5.080;2023-06-01T00:31:58;12.91;86.19
66343;DHT22;53144;51.524;5.080;2023-06-01T00:34:23;12.80;86.98
66343;DHT22;53144;51.524;5.080;2023-06-01T00:36:48;12.69;87.21
66343;DHT22;53144;51.524;5.080;2023-06-01T00:39:14;12.60;87.46
66343;DHT22;53144;51.524;5.080;2023-06-01T00:41:40;12.67;87.23
66343;DHT22;53144;51.524;5.080;2023-06-01T00:44:05;12.63;87.29
66343;DHT22;53144;51.524;5.080;2023-06-01T00:46:30;12.60;87.40
66343;DHT22;53144;51.524;5.080;2023-06-01T00:48:56;12.56;87.53
66343;DHT22;53144;51.524;5.080;2023-06-01T00:51:22;12.45;87.86
66343;DHT22;53144;51.524;5.080;2023-06-01T00:53:48;12.48;87.52
66343;DHT22;53144;51.524;5.080;2023-06-01T00:56:14;12.35;87.79
66343;DHT22;53144;51.524;5.080;2023-06-01T00:58:39;12.29;88.11
66343;DHT22;53144;51.524;5.080;2023-06-01T01:01:05;12.08;88.36
66343;DHT22;53144;51.524;5.080;2023-06-01T01:03:30;12.17;88.12
66343;DHT22;53144;51.524;5.080;2023-06-01T01:06:24;12.01;88.29
66343;DHT22;53144;51.524;5.080;2023-06-01T01:11:57;11.95;88.28
66343;DHT22;53144;51.524;5.080;2023-06-01T01:14:46;11.88;88.22
66343;DHT22;53144;51.524;5.080;2023-06-01T01:17:40;11.80;88.61
66343;DHT22;53144;51.524;5.080;2023-06-01T01:20:27;11.85;88.29
66343;DHT22;53144;51.524;5.080;2023-06-01T01:25:59;11.71;88.71
66343;DHT22;53144;51.524;5.080;2023-06-01T01:31:16;11.67;88.51
66343;DHT22;53144;51.524;5.080;2023-06-01T01:33:43;11.69;88.71
66343;DHT22;53144;51.524;5.080;2023-06-01T01:36:09;11.66;88.52
66343;DHT22;53144;51.524;5.080;2023-06-01T01:38:35;11.62;88.61
66343;DHT22;53144;51.524;5.080;2023-06-01T01:41:01;11.56;88.70
66343;DHT22;53144;51.524;5.080;2023-06-01T01:43:27;11.47;88.91
66343;DHT22;53144;51.524;5.080;2023-06-01T01:46:03;11.49;88.98
66343;DHT22;53144;51.524;5.080;2023-06-01T01:48:36;11.46;88.85
66343;DHT22;53144;51.524;5.080;2023-06-01T01:51:10;11.40;88.95
66343;DHT22;53144;51.524;5.080;2023-06-01T01:53:37;11.46;88.69
66343;DHT22;53144;51.524;5.080;2023-06-01T01:56:04;11.22;89.38
66343;DHT22;53144;51.524;5.080;2023-06-01T01:58:31;11.25;89.02
66343;DHT22;53144;51.524;5.080;2023-06-01T02:00:57;11.14;89.37
66343;DHT22;53144;51.524;5.080;2023-06-01T02:03:23;11.12;89.55
66343;DHT22;53144;51.524;5.080;2023-06-01T02:05:48;11.19;89.15
66343;DHT22;53144;51.524;5.080;2023-06-01T02:08:13;11.18;89.02
66343;DHT22;53144;51.524;5.080;2023-06-01T02:10:39;10.96;89.60
66343;DHT22;53144;51.524;5.080;2023-06-01T02:13:06;10.92;89.65
66343;DHT22;53144;51.524;5.080;2023-06-01T02:15:31;10.99;89.63
66343;DHT22;53144;51.524;5.080;2023-06-01T02:17:56;10.96;89.72
66343;DHT22;53144;51.524;5.080;2023-06-01T02:20:21;11.09;89.17
66343;DHT22;53144;51.524;5.080;2023-06-01T02:22:47;11.06;89.09
66343;DHT22;53144;51.524;5.080;2023-06-01T02:25:12;11.08;89.03
66343;DHT22;53144;51.524;5.080;2023-06-01T02:27:37;10.92;89.23
66343;DHT22;53144;51.524;5.080;2023-06-01T02:30:03;10.94;89.15
66343;DHT22;53144;51.524;5.080;2023-06-01T02:32:31;10.91;89.06
66343;DHT22;53144;51.524;5.080;2023-06-01T02:34:57;10.86;89.35
66343;DHT22;53144;51.524;5.080;2023-06-01T02:37:23;10.92;89.31
66343;DHT22;53144;51.524;5.080;2023-06-01T02:39:48;10.94;89.26
66343;DHT22;53144;51.524;5.080;2023-06-01T02:42:13;10.88;89.45
66343;DHT22;53144;51.524;5.080;2023-06-01T02:44:39;10.95;89.15
66343;DHT22;53144;51.524;5.080;2023-06-01T02:47:04;10.95;88.89
66343;DHT22;53144;51.524;5.080;2023-06-01T02:49:30;10.92;88.78
66343;DHT22;53144;51.524;5.080;2023-06-01T02:51:55;10.95;89.19
66343;DHT22;53144;51.524;5.080;2023-06-01T02:54:21;10.99;88.93
66343;DHT22;53144;51.524;5.080;2023-06-01T02:56:46;10.99;88.89
66343;DHT22;53144;51.524;5.080;2023-06-01T02:59:11;10.98;88.83
66343;DHT22;53144;51.524;5.080;2023-06-01T03:01:37;10.91;88.87
66343;DHT22;53144;51.524;5.080;2023-06-01T03:04:03;10.69;89.39
66343;DHT22;53144;51.524;5.080;2023-06-01T03:06:32;10.67;89.89
66343;DHT22;53144;51.524;5.080;2023-06-01T03:09:06;10.72;89.61
66343;DHT22;53144;51.524;5.080;2023-06-01T03:11:40;10.69;89.74
66343;DHT22;53144;51.524;5.080;2023-06-01T03:14:06;10.74;89.81
66343;DHT22;53144;51.524;5.080;2023-06-01T03:16:31;10.78;89.60
66343;DHT22;53144;51.524;5.080;2023-06-01T03:18:56;10.75;89.77
66343;DHT22;53144;51.524;5.080;2023-06-01T03:21:22;10.77;89.68
66343;DHT22;53144;51.524;5.080;2023-06-01T03:23:47;10.78;89.57
66343;DHT22;53144;51.524;5.080;2023-06-01T03:26:12;10.68;89.87
66343;DHT22;53144;51.524;5.080;2023-06-01T03:28:39;10.69;89.68
66343;DHT22;53144;51.524;5.080;2023-06-01T03:31:04;10.77;89.59
66343;DHT22;53144;51.524;5.080;2023-06-01T03:33:30;10.68;89.86
66343;DHT22;53144;51.524;5.080;2023-06-01T03:35:55;10.69;90.09
66343;DHT22;53144;51.524;5.080;2023-06-01T03:38:21;10.67;89.92
66343;DHT22;53144;51.524;5.080;2023-06-01T03:40:46;10.65;90.00
66343;DHT22;53144;51.524;5.080;2023-06-01T03:43:12;10.78;89.59
66343;DHT22;53144;51.524;5.080;2023-06-01T03:45:37;10.85;89.50
66343;DHT22;53144;51.524;5.080;2023-06-01T03:48:03;10.82;89.51
66343;DHT22;53144;51.524;5.080;2023-06-01T03:50:28;10.86;89.69
66343;DHT22;53144;51.524;5.080;2023-06-01T03:52:54;10.75;89.72
66343;DHT22;53144;51.524;5.080;2023-06-01T03:55:20;10.84;89.38
66343;DHT22;53144;51.524;5.080;2023-06-01T03:57:46;10.84;89.21
66343;DHT22;53144;51.524;5.080;2023-06-01T04:00:11;10.91;88.93
66343;DHT22;53144;51.524;5.080;2023-06-01T04:02:54;10.94;88.61
66343;DHT22;53144;51.524;5.080;2023-06-01T04:05:21;10.95;88.58
66343;DHT22;53144;51.524;5.080;2023-06-01T04:07:48;10.82;88.58
66343;DHT22;53144;51.524;5.080;2023-06-01T04:10:14;10.89;88.70
66343;DHT22;53144;51.524;5.080;2023-06-01T04:12:45;10.96;88.47
66343;DHT22;53144;51.524;5.080;2023-06-01T04:15:12;10.94;88.16
66343;DHT22;53144;51.524;5.080;2023-06-01T04:17:39;10.95;87.76
66343;DHT22;53144;51.524;5.080;2023-06-01T04:20:05;10.96;87.84
66343;DHT22;53144;51.524;5.080;2023-06-01T04:22:32;10.89;88.04
66343;DHT22;53144;51.524;5.080;2023-06-01T04:24:57;10.86;88.25
66343;DHT22;53144;51.524;5.080;2023-06-01T04:27:23;11.01;88.14
66343;DHT22;53144;51.524;5.080;2023-06-01T04:29:50;11.08;87.62
66343;DHT22;53144;51.524;5.080;2023-06-01T04:32:15;11.06;88.03
66343;DHT22;53144;51.524;5.080;2023-06-01T04:34:46;11.08;87.19
66343;DHT22;53144;51.524;5.080;2023-06-01T04:37:14;11.05;87.53
66343;DHT22;53144;51.524;5.080;2023-06-01T04:39:40;11.05;87.13
66343;DHT22;53144;51.524;5.080;2023-06-01T04:42:07;11.08;86.92
66343;DHT22;53144;51.524;5.080;2023-06-01T04:44:33;11.06;87.08
66343;DHT22;53144;51.524;5.080;2023-06-01T04:46:59;11.06;86.93
66343;DHT22;53144;51.524;5.080;2023-06-01T04:49:28;10.96;87.20
66343;DHT22;53144;51.524;5.080;2023-06-01T04:51:54;11.06;86.60
66343;DHT22;53144;51.524;5.080;2023-06-01T04:54:19;11.06;86.94
66343;DHT22;53144;51.524;5.080;2023-06-01T04:56:44;11.14;86.58
66343;DHT22;53144;51.524;5.080;2023-06-01T04:59:10;11.19;86.83
66343;DHT22;53144;51.524;5.080;2023-06-01T05:01:35;11.25;86.62
66343;DHT22;53144;51.524;5.080;2023-06-01T05:04:04;11.30;86.12
66343;DHT22;53144;51.524;5.080;2023-06-01T05:06:29;11.22;86.12
66343;DHT22;53144;51.524;5.080;2023-06-01T05:08:54;11.29;85.72
66343;DHT22;53144;51.524;5.080;2023-06-01T05:11:20;11.29;85.79
66343;DHT22;53144;51.524;5.080;2023-06-01T05:13:46;11.32;85.18
66343;DHT22;53144;51.524;5.080;2023-06-01T05:16:11;11.37;85.76
66343;DHT22;53144;51.524;5.080;2023-06-01T05:18:37;11.39;85.43
66343;DHT22;53144;51.524;5.080;2023-06-01T05:21:03;11.36;84.96
66343;DHT22;53144;51.524;5.080;2023-06-01T05:23:29;11.47;85.20
66343;DHT22;53144;51.524;5.080;2023-06-01T05:25:55;11.53;84.70
66343;DHT22;53144;51.524;5.080;2023-06-01T05:28:31;11.46;84.34
66343;DHT22;53144;51.524;5.080;2023-06-01T05:30:57;11.39;84.64
66343;DHT22;53144;51.524;5.080;2023-06-01T05:33:23;11.50;85.27
66343;DHT22;53144;51.524;5.080;2023-06-01T05:35:48;11.59;84.35
66343;DHT22;53144;51.524;5.080;2023-06-01T05:38:13;11.67;84.71
66343;DHT22;53144;51.524;5.080;2023-06-01T05:40:39;11.75;83.97
66343;DHT22;53144;51.524;5.080;2023-06-01T05:43:04;11.75;83.69
66343;DHT22;53144;51.524;5.080;2023-06-01T05:45:31;11.78;83.94
66343;DHT22;53144;51.524;5.080;2023-06-01T05:47:57;11.80;83.61
66343;DHT22;53144;51.524;5.080;2023-06-01T05:50:23;11.81;83.48
66343;DHT22;53144;51.524;5.080;2023-06-01T05:52:48;11.90;84.00
66343;DHT22;53144;51.524;5.080;2023-06-01T05:55:13;11.81;83.56
66343;DHT22;53144;51.524;5.080;2023-06-01T05:57:39;11.91;82.96
66343;DHT22;53144;51.524;5.080;2023-06-01T06:00:06;12.05;84.67
66343;DHT22;53144;51.524;5.080;2023-06-01T06:02:35;12.22;83.30
66343;DHT22;53144;51.524;5.080;2023-06-01T06:05:00;12.29;82.03
66343;DHT22;53144;51.524;5.080;2023-06-01T06:07:25;12.26;82.38
66343;DHT22;53144;51.524;5.080;2023-06-01T06:09:51;12.33;81.96
66343;DHT22;53144;51.524;5.080;2023-06-01T06:12:17;12.39;82.03
66343;DHT22;53144;51.524;5.080;2023-06-01T06:14:42;12.39;81.76
66343;DHT22;53144;51.524;5.080;2023-06-01T06:17:07;12.46;82.80
66343;DHT22;53144;51.524;5.080;2023-06-01T06:19:33;12.45;81.70
66343;DHT22;53144;51.524;5.080;2023-06-01T06:21:59;12.31;81.05
66343;DHT22;53144;51.524;5.080;2023-06-01T06:24:24;12.24;81.95
66343;DHT22;53144;51.524;5.080;2023-06-01T06:26:50;11.91;81.97
66343;DHT22;53144;51.524;5.080;2023-06-01T06:29:15;11.88;83.10
66343;DHT22;53144;51.524;5.080;2023-06-01T06:31:41;11.93;82.40
66343;DHT22;53144;51.524;5.080;2023-06-01T06:34:08;12.02;82.70
66343;DHT22;53144;51.524;5.080;2023-06-01T06:36:33;12.14;83.09
66343;DHT22;53144;51.524;5.080;2023-06-01T06:38:58;12.28;81.92
66343;DHT22;53144;51.524;5.080;2023-06-01T06:41:24;12.43;81.73
66343;DHT22;53144;51.524;5.080;2023-06-01T06:43:50;12.49;80.91
66343;DHT22;53144;51.524;5.080;2023-06-01T06:46:15;12.63;81.43
66343;DHT22;53144;51.524;5.080;2023-06-01T06:48:40;12.67;81.64
66343;DHT22;53144;51.524;5.080;2023-06-01T06:51:06;12.80;80.47
66343;DHT22;53144;51.524;5.080;2023-06-01T06:53:31;12.93;80.44
66343;DHT22;53144;51.524;5.080;2023-06-01T06:55:58;13.15;80.46
66343;DHT22;53144;51.524;5.080;2023-06-01T06:58:23;13.35;80.15
66343;DHT22;53144;51.524;5.080;2023-06-01T07:00:49;13.51;78.48
66343;DHT22;53144;51.524;5.080;2023-06-01T07:03:14;13.54;78.86
66343;DHT22;53144;51.524;5.080;2023-06-01T07:05:40;13.63;78.22
66343;DHT22;53144;51.524;5.080;2023-06-01T07:08:05;13.75;77.97
66343;DHT22;53144;51.524;5.080;2023-06-01T07:10:31;13.66;78.04
66343;DHT22;53144;51.524;5.080;2023-06-01T07:12:56;13.80;77.30
66343;DHT22;53144;51.524;5.080;2023-06-01T07:15:22;13.47;77.22
66343;DHT22;53144;51.524;5.080;2023-06-01T07:17:47;13.75;77.89
66343;DHT22;53144;51.524;5.080;2023-06-01T07:20:12;13.82;76.70
66343;DHT22;53144;51.524;5.080;2023-06-01T07:22:39;13.79;76.86
66343;DHT22;53144;51.524;5.080;2023-06-01T07:25:05;13.83;77.97
66343;DHT22;53144;51.524;5.080;2023-06-01T07:27:30;13.85;77.45
66343;DHT22;53144;51.524;5.080;2023-06-01T07:29:56;13.86;77.89
66343;DHT22;53144;51.524;5.080;2023-06-01T07:32:22;13.69;77.60
66343;DHT22;53144;51.524;5.080;2023-06-01T07:34:48;13.89;77.02
66343;DHT22;53144;51.524;5.080;2023-06-01T07:37:13;13.98;77.20
66343;DHT22;53144;51.524;5.080;2023-06-01T07:39:39;14.02;77.64
66343;DHT22;53144;51.524;5.080;2023-06-01T07:42:05;14.13;77.13
66343;DHT22;53144;51.524;5.080;2023-06-01T07:44:30;14.21;76.41
66343;DHT22;53144;51.524;5.080;2023-06-01T07:46:55;14.16;75.79
66343;DHT22;53144;51.524;5.080;2023-06-01T07:49:21;14.29;76.12
66343;DHT22;53144;51.524;5.080;2023-06-01T07:51:46;14.21;75.10
66343;DHT22;53144;51.524;5.080;2023-06-01T07:54:12;14.24;75.49
66343;DHT22;53144;51.524;5.080;2023-06-01T07:56:38;14.12;76.17
66343;DHT22;53144;51.524;5.080;2023-06-01T07:59:04;14.36;75.96
66343;DHT22;53144;51.524;5.080;2023-06-01T08:01:30;14.47;75.38
66343;DHT22;53144;51.524;5.080;2023-06-01T08:03:55;14.61;75.83
66343;DHT22;53144;51.524;5.080;2023-06-01T08:06:24;14.68;75.89
66343;DHT22;53144;51.524;5.080;2023-06-01T08:08:51;14.78;75.08
66343;DHT22;53144;51.524;5.080;2023-06-01T08:11:17;14.92;75.39
66343;DHT22;53144;51.524;5.080;2023-06-01T08:13:43;14.75;74.36
66343;DHT22;53144;51.524;5.080;2023-06-01T08:16:11;14.74;75.05
66343;DHT22;53144;51.524;5.080;2023-06-01T08:18:38;14.84;72.86
66343;DHT22;53144;51.524;5.080;2023-06-01T08:21:03;14.95;74.06
66343;DHT22;53144;51.524;5.080;2023-06-01T08:23:29;15.10;73.79
66343;DHT22;53144;51.524;5.080;2023-06-01T08:25:54;14.75;74.03
66343;DHT22;53144;51.524;5.080;2023-06-01T08:28:20;14.96;74.24
66343;DHT22;53144;51.524;5.080;2023-06-01T08:30:46;15.16;74.17
66343;DHT22;53144;51.524;5.080;2023-06-01T08:33:11;15.05;73.31
66343;DHT22;53144;51.524;5.080;2023-06-01T08:35:36;15.02;73.60
66343;DHT22;53144;51.524;5.080;2023-06-01T08:38:02;14.99;73.79
66343;DHT22;53144;51.524;5.080;2023-06-01T08:40:28;15.29;73.50
66343;DHT22;53144;51.524;5.080;2023-06-01T08:45:32;15.66;72.32
66343;DHT22;53144;51.524;5.080;2023-06-01T08:47:58;15.73;71.07
66343;DHT22;53144;51.524;5.080;2023-06-01T08:50:26;15.74;72.38
66343;DHT22;53144;51.524;5.080;2023-06-01T08:52:56;15.67;72.28
66343;DHT22;53144;51.524;5.080;2023-06-01T08:55:22;15.66;71.34
66343;DHT22;53144;51.524;5.080;2023-06-01T08:57:47;15.93;70.74
66343;DHT22;53144;51.524;5.080;2023-06-01T09:00:14;15.80;71.03
66343;DHT22;53144;51.524;5.080;2023-06-01T09:02:39;15.70;71.66
66343;DHT22;53144;51.524;5.080;2023-06-01T09:05:05;15.71;71.38
66343;DHT22;53144;51.524;5.080;2023-06-01T09:07:31;16.01;71.30
66343;DHT22;53144;51.524;5.080;2023-06-01T09:09:56;16.06;70.26
66343;DHT22;53144;51.524;5.080;2023-06-01T09:12:22;16.12;68.71
66343;DHT22;53144;51.524;5.080;2023-06-01T09:15:12;16.12;68.21
66343;DHT22;53144;51.524;5.080;2023-06-01T09:17:39;16.18;69.88
66343;DHT22;53144;51.524;5.080;2023-06-01T09:20:06;16.29;69.32
66343;DHT22;53144;51.524;5.080;2023-06-01T09:22:45;16.49;69.43
66343;DHT22;53144;51.524;5.080;2023-06-01T09:25:11;16.67;67.69
66343;DHT22;53144;51.524;5.080;2023-06-01T09:30:15;16.95;69.62
66343;DHT22;53144;51.524;5.080;2023-06-01T09:32:41;17.08;67.12
66343;DHT22;53144;51.524;5.080;2023-06-01T09:35:08;17.06;67.40
66343;DHT22;53144;51.524;5.080;2023-06-01T09:37:37;16.70;68.50
66343;DHT22;53144;51.524;5.080;2023-06-01T09:40:19;16.99;69.47
66343;DHT22;53144;51.524;5.080;2023-06-01T09:42:45;17.14;69.72
66343;DHT22;53144;51.524;5.080;2023-06-01T09:45:19;17.10;67.50
66343;DHT22;53144;51.524;5.080;2023-06-01T09:47:46;17.38;67.54
66343;DHT22;53144;51.524;5.080;2023-06-01T09:50:31;17.65;65.78
66343;DHT22;53144;51.524;5.080;2023-06-01T09:52:57;17.65;65.71
66343;DHT22;53144;51.524;5.080;2023-06-01T09:55:23;17.63;65.61
66343;DHT22;53144;51.524;5.080;2023-06-01T09:57:48;17.66;64.85
66343;DHT22;53144;51.524;5.080;2023-06-01T10:00:24;17.87;64.89
66343;DHT22;53144;51.524;5.080;2023-06-01T10:02:52;17.82;65.32
66343;DHT22;53144;51.524;5.080;2023-06-01T10:05:17;17.82;63.91
66343;DHT22;53144;51.524;5.080;2023-06-01T10:07:44;18.36;66.42
66343;DHT22;53144;51.524;5.080;2023-06-01T10:10:13;18.52;62.69
66343;DHT22;53144;51.524;5.080;2023-06-01T10:12:39;18.67;61.23
66343;DHT22;53144;51.524;5.080;2023-06-01T10:15:05;18.84;61.93
66343;DHT22;53144;51.524;5.080;2023-06-01T10:17:32;19.02;59.58
66343;DHT22;53144;51.524;5.080;2023-06-01T10:19:58;19.24;61.04
66343;DHT22;53144;51.524;5.080;2023-06-01T10:22:24;19.29;60.06
66343;DHT22;53144;51.524;5.080;2023-06-01T10:24:55;19.58;59.14
66343;DHT22;53144;51.524;5.080;2023-06-01T10:29:53;20.32;56.80
66343;DHT22;53144;51.524;5.080;2023-06-01T10:35:04;20.93;57.51
66343;DHT22;53144;51.524;5.080;2023-06-01T10:37:30;21.66;54.08
66343;DHT22;53144;51.524;5.080;2023-06-01T10:42:40;22.27;50.87
66343;DHT22;53144;51.524;5.080;2023-06-01T10:45:06;22.43;51.15
66343;DHT22;53144;51.524;5.080;2023-06-01T10:52:38;23.09;49.85
66343;DHT22;53144;51.524;5.080;2023-06-01T10:57:41;23.26;49.72
66343;DHT22;53144;51.524;5.080;2023-06-01T11:02:56;22.76;49.32
66343;DHT22;53144;51.524;5.080;2023-06-01T11:13:16;24.33;46.58
66343;DHT22;53144;51.524;5.080;2023-06-01T11:21:16;24.40;49.37
66343;DHT22;53144;51.524;5.080;2023-06-01T11:23:43;24.43;48.27
66343;DHT22;53144;51.524;5.080;2023-06-01T11:26:13;25.34;46.44
66343;DHT22;53144;51.524;5.080;2023-06-01T11:28:38;24.76;48.42
66343;DHT22;53144;51.524;5.080;2023-06-01T11:31:09;24.80;48.23
66343;DHT22;53144;51.524;5.080;2023-06-01T11:33:38;24.35;46.48
66343;DHT22;53144;51.524;5.080;2023-06-01T11:36:04;24.09;47.94
66343;DHT22;53144;51.524;5.080;2023-06-01T11:38:34;25.72;43.89
66343;DHT22;53144;51.524;5.080;2023-06-01T11:41:01;24.97;44.87
66343;DHT22;53144;51.524;5.080;2023-06-01T11:43:30;25.59;45.02
66343;DHT22;53144;51.524;5.080;2023-06-01T11:46:06;24.28;47.63
66343;DHT22;53144;51.524;5.080;2023-06-01T11:48:33;24.29;46.12
66343;DHT22;53144;51.524;5.080;2023-06-01T11:51:04;25.14;46.74
66343;DHT22;53144;51.524;5.080;2023-06-01T11:53:31;24.84;46.10
66343;DHT22;53144;51.524;5.080;2023-06-01T11:55:57;25.27;45.86
66343;DHT22;53144;51.524;5.080;2023-06-01T11:58:28;25.71;45.60
66343;DHT22;53144;51.524;5.080;2023-06-01T12:00:54;25.27;45.83
66343;DHT22;53144;51.524;5.080;2023-06-01T12:03:20;24.91;46.02
66343;DHT22;53144;51.524;5.080;2023-06-01T12:05:46;25.85;44.09
66343;DHT22;53144;51.524;5.080;2023-06-01T12:08:22;25.48;45.58
66343;DHT22;53144;51.524;5.080;2023-06-01T12:10:51;25.54;46.92
66343;DHT22;53144;51.524;5.080;2023-06-01T12:13:18;26.10;43.86
66343;DHT22;53144;51.524;5.080;2023-06-01T12:15:45;25.48;46.24
66343;DHT22;53144;51.524;5.080;2023-06-01T12:18:11;25.42;45.81
66343;DHT22;53144;51.524;5.080;2023-06-01T12:20:41;25.58;45.84
66343;DHT22;53144;51.524;5.080;2023-06-01T12:26:05;25.83;44.84
66343;DHT22;53144;51.524;5.080;2023-06-01T12:28:49;26.64;41.84
66343;DHT22;53144;51.524;5.080;2023-06-01T12:31:16;26.13;45.22
66343;DHT22;53144;51.524;5.080;2023-06-01T12:33:43;26.39;42.71
66343;DHT22;53144;51.524;5.080;2023-06-01T12:36:10;26.57;40.24
66343;DHT22;53144;51.524;5.080;2023-06-01T12:38:51;25.23;43.47
66343;DHT22;53144;51.524;5.080;2023-06-01T12:41:18;26.03;44.43
66343;DHT22;53144;51.524;5.080;2023-06-01T12:43:47;25.25;43.59
66343;DHT22;53144;51.524;5.080;2023-06-01T12:46:26;26.07;41.90
66343;DHT22;53144;51.524;5.080;2023-06-01T12:48:54;25.96;42.78
66343;DHT22;53144;51.524;5.080;2023-06-01T12:51:20;25.99;44.54
66343;DHT22;53144;51.524;5.080;2023-06-01T12:53:46;26.30;42.61
66343;DHT22;53144;51.524;5.080;2023-06-01T12:56:13;26.33;42.20
66343;DHT22;53144;51.524;5.080;2023-06-01T12:58:39;25.49;44.11
66343;DHT22;53144;51.524;5.080;2023-06-01T13:01:05;25.51;43.89
66343;DHT22;53144;51.524;5.080;2023-06-01T13:03:31;26.45;42.07
66343;DHT22;53144;51.524;5.080;2023-06-01T13:05:56;25.86;42.61
66343;DHT22;53144;51.524;5.080;2023-06-01T13:08:22;25.21;44.15
66343;DHT22;53144;51.524;5.080;2023-06-01T13:10:48;24.63;45.42
66343;DHT22;53144;51.524;5.080;2023-06-01T13:13:14;25.18;45.32
66343;DHT22;53144;51.524;5.080;2023-06-01T13:15:44;25.94;43.62
66343;DHT22;53144;51.524;5.080;2023-06-01T13:18:10;26.26;44.55
66343;DHT22;53144;51.524;5.080;2023-06-01T13:20:36;25.58;45.20
66343;DHT22;53144;51.524;5.080;2023-06-01T13:23:02;24.40;47.03
66343;DHT22;53144;51.524;5.080;2023-06-01T13:25:29;25.27;46.73
66343;DHT22;53144;51.524;5.080;2023-06-01T13:27:54;25.27;46.10
66343;DHT22;53144;51.524;5.080;2023-06-01T13:30:20;24.62;46.88
66343;DHT22;53144;51.524;5.080;2023-06-01T13:32:45;24.22;47.18
66343;DHT22;53144;51.524;5.080;2023-06-01T13:35:11;24.53;46.50
66343;DHT22;53144;51.524;5.080;2023-06-01T13:37:39;25.57;44.67
66343;DHT22;53144;51.524;5.080;2023-06-01T13:40:05;25.30;44.28
66343;DHT22;53144;51.524;5.080;2023-06-01T13:42:31;24.24;46.17
66343;DHT22;53144;51.524;5.080;2023-06-01T13:44:58;25.45;45.10
66343;DHT22;53144;51.524;5.080;2023-06-01T13:47:23;25.28;45.82
66343;DHT22;53144;51.524;5.080;2023-06-01T13:49:48;24.88;46.14
66343;DHT22;53144;51.524;5.080;2023-06-01T13:52:14;24.22;47.56
66343;DHT22;53144;51.524;5.080;2023-06-01T13:54:39;24.42;47.74
66343;DHT22;53144;51.524;5.080;2023-06-01T13:57:05;24.90;46.71
66343;DHT22;53144;51.524;5.080;2023-06-01T13:59:31;24.69;47.53
66343;DHT22;53144;51.524;5.080;2023-06-01T14:01:59;25.28;45.53
66343;DHT22;53144;51.524;5.080;2023-06-01T14:04:24;25.14;45.63
66343;DHT22;53144;51.524;5.080;2023-06-01T14:06:49;24.46;47.36
66343;DHT22;53144;51.524;5.080;2023-06-01T14:09:16;23.24;49.19
66343;DHT22;53144;51.524;5.080;2023-06-01T14:11:41;23.13;49.29
66343;DHT22;53144;51.524;5.080;2023-06-01T14:14:07;22.16;51.99
66343;DHT22;53144;51.524;5.080;2023-06-01T14:16:32;21.69;53.25
66343;DHT22;53144;51.524;5.080;2023-06-01T14:18:58;21.65;52.79
66343;DHT22;53144;51.524;5.080;2023-06-01T14:21:23;21.82;52.64
66343;DHT22;53144;51.524;5.080;2023-06-01T14:23:49;21.11;54.87
66343;DHT22;53144;51.524;5.080;2023-06-01T14:26:15;21.28;54.80
66343;DHT22;53144;51.524;5.080;2023-06-01T14:28:40;20.91;54.89
66343;DHT22;53144;51.524;5.080;2023-06-01T14:31:05;20.81;55.67
66343;DHT22;53144;51.524;5.080;2023-06-01T14:33:31;21.00;56.67
66343;DHT22;53144;51.524;5.080;2023-06-01T14:35:56;20.91;56.40
66343;DHT22;53144;51.524;5.080;2023-06-01T14:38:21;20.86;56.67
66343;DHT22;53144;51.524;5.080;2023-06-01T14:40:47;20.73;56.44
66343;DHT22;53144;51.524;5.080;2023-06-01T14:43:12;20.60;57.44
66343;DHT22;53144;51.524;5.080;2023-06-01T14:45:38;20.19;58.48
66343;DHT22;53144;51.524;5.080;2023-06-01T14:48:03;20.37;58.07
66343;DHT22;53144;51.524;5.080;2023-06-01T14:50:28;20.30;57.86
66343;DHT22;53144;51.524;5.080;2023-06-01T14:52:54;20.01;58.60
66343;DHT22;53144;51.524;5.080;2023-06-01T14:55:25;19.89;58.59
66343;DHT22;53144;51.524;5.080;2023-06-01T14:57:51;19.97;58.37
66343;DHT22;53144;51.524;5.080;2023-06-01T15:00:17;20.01;59.54
66343;DHT22;53144;51.524;5.080;2023-06-01T15:02:43;19.87;58.62
66343;DHT22;53144;51.524;5.080;2023-06-01T15:05:10;19.47;60.62
66343;DHT22;53144;51.524;5.080;2023-06-01T15:07:36;19.77;60.18
66343;DHT22;53144;51.524;5.080;2023-06-01T15:10:01;19.49;59.26
66343;DHT22;53144;51.524;5.080;2023-06-01T15:12:28;19.56;59.43
66343;DHT22;53144;51.524;5.080;2023-06-01T15:14:53;19.49;60.54
66343;DHT22;53144;51.524;5.080;2023-06-01T15:17:18;19.27;61.76
66343;DHT22;53144;51.524;5.080;2023-06-01T15:19:44;19.06;61.82
66343;DHT22;53144;51.524;5.080;2023-06-01T15:22:10;19.08;62.13
66343;DHT22;53144;51.524;5.080;2023-06-01T15:24:36;19.10;61.85
66343;DHT22;53144;51.524;5.080;2023-06-01T15:27:02;19.06;62.93
66343;DHT22;53144;51.524;5.080;2023-06-01T15:29:27;18.67;62.21
66343;DHT22;53144;51.524;5.080;2023-06-01T15:31:53;18.78;62.13
66343;DHT22;53144;51.524;5.080;2023-06-01T15:34:18;18.67;62.07
66343;DHT22;53144;51.524;5.080;2023-06-01T15:36:44;18.68;62.55
66343;DHT22;53144;51.524;5.080;2023-06-01T15:39:09;18.78;62.62
66343;DHT22;53144;51.524;5.080;2023-06-01T15:41:35;18.57;62.00
66343;DHT22;53144;51.524;5.080;2023-06-01T15:44:01;18.21;63.06
66343;DHT22;53144;51.524;5.080;2023-06-01T15:46:26;18.18;64.66
66343;DHT22;53144;51.524;5.080;2023-06-01T15:48:52;18.00;66.56
66343;DHT22;53144;51.524;5.080;2023-06-01T15:51:17;17.68;66.21
66343;DHT22;53144;51.524;5.080;2023-06-01T15:53:42;17.71;67.27
66343;DHT22;53144;51.524;5.080;2023-06-01T15:56:08;17.76;66.36
66343;DHT22;53144;51.524;5.080;2023-06-01T15:58:33;17.68;66.82
66343;DHT22;53144;51.524;5.080;2023-06-01T16:00:59;17.58;67.21
66343;DHT22;53144;51.524;5.080;2023-06-01T16:03:25;17.30;67.88
66343;DHT22;53144;51.524;5.080;2023-06-01T16:05:51;17.27;68.47
66343;DHT22;53144;51.524;5.080;2023-06-01T16:08:16;17.36;68.17
66343;DHT22;53144;51.524;5.080;2023-06-01T16:10:42;17.32;68.02
66343;DHT22;53144;51.524;5.080;2023-06-01T16:13:07;17.27;67.36
66343;DHT22;53144;51.524;5.080;2023-06-01T16:15:32;17.15;67.37